sensor_id;sensor_type;location;lat;lon;timestamp;P1;durP1;ratioP1;P2;durP2;ratioP2
7160;SDS011;3622;53.576;9.978;2023-02-28T00:00:45;2.20;;;2.00;;
7160;SDS011;3622;53.576;9.978;2023-02-28T00:03:11;3.57;;;1.70;;
7160;SDS011;3622;53.576;9.978;2023-02-28T00:05:36;5.00;;;2.73;;
7160;SDS011;3622;53.576;9.978;2023-02-28T00:08:03;3.57;;;2.23;;
7160;SDS011;3622;53.576;9.978;2023-02-28T00:10:29;6.30;;;2.03;;
7160;SDS011;3622;53.576;9.978;2023-02-28T00:12:58;4.67;;;2.20;;
7160;SDS011;3622;53.576;9.978;2023-02-28T00:15:25;8.10;;;2.10;;
7160;SDS011;3622;53.576;9.978;2023-02-28T00:17:51;3.37;;;1.30;;
7160;SDS011;3622;53.576;9.978;2023-02-28T00:20:17;1.83;;;1.40;;
7160;SDS011;3622;53.576;9.978;2023-02-28T00:22:44;4.60;;;1.50;;
7160;SDS011;3622;53.576;9.978;2023-02-28T00:25:11;1.90;;;1.20;;
7160;SDS011;3622;53.576;9.978;2023-02-28T00:27:38;1.47;;;1.37;;
7160;SDS011;3622;53.576;9.978;2023-02-28T00:30:04;1.40;;;1.30;;
7160;SDS011;3622;53.576;9.978;2023-02-28T00:32:31;2.90;;;1.60;;
7160;SDS011;3622;53.576;9.978;2023-02-28T00:34:57;2.23;;;1.73;;
7160;SDS011;3622;53.576;9.978;2023-02-28T00:37:23;1.67;;;1.57;;
7160;SDS011;3622;53.576;9.978;2023-02-28T00:39:49;6.63;;;1.87;;
7160;SDS011;3622;53.576;9.978;2023-02-28T00:42:15;1.70;;;1.60;;
7160;SDS011;3622;53.576;9.978;2023-02-28T00:44:41;3.23;;;1.70;;
7160;SDS011;3622;53.576;9.978;2023-02-28T00:47:07;2.50;;;2.30;;
7160;SDS011;3622;53.576;9.978;2023-02-28T00:49:33;6.20;;;2.40;;
7160;SDS011;3622;53.576;9.978;2023-02-28T00:51:59;3.07;;;2.37;;
7160;SDS011;3622;53.576;9.978;2023-02-28T00:54:25;4.60;;;2.43;;
7160;SDS011;3622;53.576;9.978;2023-02-28T00:56:51;2.67;;;2.10;;
7160;SDS011;3622;53.576;9.978;2023-02-28T00:59:17;2.33;;;2.00;;
7160;SDS011;3622;53.576;9.978;2023-02-28T01:01:43;3.23;;;2.40;;
7160;SDS011;3622;53.576;9.978;2023-02-28T01:04:10;3.17;;;2.10;;
7160;SDS011;3622;53.576;9.978;2023-02-28T01:06:36;2.70;;;2.50;;
7160;SDS011;3622;53.576;9.978;2023-02-28T01:09:02;2.67;;;2.47;;
7160;SDS011;3622;53.576;9.978;2023-02-28T01:11:28;4.57;;;2.40;;
7160;SDS011;3622;53.576;9.978;2023-02-28T01:13:54;5.33;;;2.33;;
7160;SDS011;3622;53.576;9.978;2023-02-28T01:16:20;4.53;;;2.17;;
7160;SDS011;3622;53.576;9.978;2023-02-28T01:18:46;3.57;;;2.00;;
7160;SDS011;3622;53.576;9.978;2023-02-28T01:21:14;2.90;;;2.60;;
7160;SDS011;3622;53.576;9.978;2023-02-28T01:23:41;2.43;;;2.00;;
7160;SDS011;3622;53.576;9.978;2023-02-28T01:26:12;2.43;;;2.20;;
7160;SDS011;3622;53.576;9.978;2023-02-28T01:28:38;3.40;;;2.60;;
7160;SDS011;3622;53.576;9.978;2023-02-28T01:31:04;3.33;;;2.70;;
7160;SDS011;3622;53.576;9.978;2023-02-28T01:33:30;4.33;;;2.50;;
7160;SDS011;3622;53.576;9.978;2023-02-28T01:36:00;4.43;;;2.17;;
7160;SDS011;3622;53.576;9.978;2023-02-28T01:38:26;3.90;;;2.30;;
7160;SDS011;3622;53.576;9.978;2023-02-28T01:40:52;4.87;;;3.07;;
7160;SDS011;3622;53.576;9.978;2023-02-28T01:43:22;6.27;;;3.23;;
7160;SDS011;3622;53.576;9.978;2023-02-28T01:45:49;5.53;;;2.90;;
7160;SDS011;3622;53.576;9.978;2023-02-28T01:48:15;8.60;;;3.60;;
7160;SDS011;3622;53.576;9.978;2023-02-28T01:50:42;5.37;;;3.63;;
7160;SDS011;3622;53.576;9.978;2023-02-28T01:53:10;5.97;;;3.63;;
7160;SDS011;3622;53.576;9.978;2023-02-28T01:55:39;6.60;;;3.30;;
7160;SDS011;3622;53.576;9.978;2023-02-28T01:58:05;7.50;;;4.50;;
7160;SDS011;3622;53.576;9.978;2023-02-28T02:00:33;12.20;;;5.00;;
7160;SDS011;3622;53.576;9.978;2023-02-28T02:03:05;6.90;;;4.23;;
7160;SDS011;3622;53.576;9.978;2023-02-28T02:05:32;8.70;;;4.10;;
7160;SDS011;3622;53.576;9.978;2023-02-28T02:08:03;16.00;;;7.00;;
7160;SDS011;3622;53.576;9.978;2023-02-28T02:13:18;12.33;;;6.27;;
7160;SDS011;3622;53.576;9.978;2023-02-28T02:16:04;17.40;;;7.30;;
7160;SDS011;3622;53.576;9.978;2023-02-28T02:28:42;79.17;;;28.43;;
7160;SDS011;3622;53.576;9.978;2023-02-28T02:34:02;60.47;;;22.73;;
7160;SDS011;3622;53.576;9.978;2023-02-28T02:37:14;88.20;;;31.40;;
7160;SDS011;3622;53.576;9.978;2023-02-28T02:41:59;50.73;;;17.27;;
7160;SDS011;3622;53.576;9.978;2023-02-28T02:44:29;34.63;;;14.10;;
7160;SDS011;3622;53.576;9.978;2023-02-28T02:47:01;41.20;;;17.27;;
7160;SDS011;3622;53.576;9.978;2023-02-28T02:49:30;30.53;;;11.67;;
7160;SDS011;3622;53.576;9.978;2023-02-28T02:51:58;15.53;;;7.07;;
7160;SDS011;3622;53.576;9.978;2023-02-28T02:54:28;27.57;;;8.90;;
7160;SDS011;3622;53.576;9.978;2023-02-28T02:56:55;29.77;;;12.33;;
7160;SDS011;3622;53.576;9.978;2023-02-28T02:59:22;35.20;;;12.90;;
7160;SDS011;3622;53.576;9.978;2023-02-28T03:01:50;44.77;;;15.40;;
7160;SDS011;3622;53.576;9.978;2023-02-28T03:04:18;52.27;;;17.40;;
7160;SDS011;3622;53.576;9.978;2023-02-28T03:06:44;31.47;;;10.87;;
7160;SDS011;3622;53.576;9.978;2023-02-28T03:09:10;19.23;;;9.57;;
7160;SDS011;3622;53.576;9.978;2023-02-28T03:11:36;13.00;;;7.50;;
7160;SDS011;3622;53.576;9.978;2023-02-28T03:16:36;15.00;;;7.13;;
7160;SDS011;3622;53.576;9.978;2023-02-28T03:24:40;8.77;;;4.90;;
7160;SDS011;3622;53.576;9.978;2023-02-28T03:27:12;9.83;;;4.07;;
7160;SDS011;3622;53.576;9.978;2023-02-28T03:29:42;10.13;;;4.70;;
7160;SDS011;3622;53.576;9.978;2023-02-28T03:32:20;7.13;;;4.90;;
7160;SDS011;3622;53.576;9.978;2023-02-28T03:34:50;8.10;;;4.83;;
7160;SDS011;3622;53.576;9.978;2023-02-28T03:37:19;10.13;;;5.30;;
7160;SDS011;3622;53.576;9.978;2023-02-28T03:39:47;6.13;;;4.60;;
7160;SDS011;3622;53.576;9.978;2023-02-28T03:42:22;9.60;;;5.57;;
7160;SDS011;3622;53.576;9.978;2023-02-28T03:44:49;8.80;;;4.83;;
7160;SDS011;3622;53.576;9.978;2023-02-28T03:47:29;9.10;;;5.07;;
7160;SDS011;3622;53.576;9.978;2023-02-28T03:50:03;11.67;;;5.00;;
7160;SDS011;3622;53.576;9.978;2023-02-28T03:52:32;11.50;;;5.40;;
7160;SDS011;3622;53.576;9.978;2023-02-28T03:55:01;14.30;;;5.60;;
7160;SDS011;3622;53.576;9.978;2023-02-28T03:57:39;11.13;;;5.20;;
7160;SDS011;3622;53.576;9.978;2023-02-28T04:00:11;7.77;;;5.20;;
7160;SDS011;3622;53.576;9.978;2023-02-28T04:02:38;11.80;;;5.50;;
7160;SDS011;3622;53.576;9.978;2023-02-28T04:05:04;8.03;;;6.70;;
7160;SDS011;3622;53.576;9.978;2023-02-28T04:07:31;15.87;;;6.73;;
7160;SDS011;3622;53.576;9.978;2023-02-28T04:09:57;12.10;;;6.03;;
7160;SDS011;3622;53.576;9.978;2023-02-28T04:12:23;13.50;;;5.93;;
7160;SDS011;3622;53.576;9.978;2023-02-28T04:14:49;19.17;;;5.50;;
7160;SDS011;3622;53.576;9.978;2023-02-28T04:17:16;8.03;;;4.83;;
7160;SDS011;3622;53.576;9.978;2023-02-28T04:19:42;16.10;;;6.40;;
7160;SDS011;3622;53.576;9.978;2023-02-28T04:22:08;20.17;;;7.67;;
7160;SDS011;3622;53.576;9.978;2023-02-28T04:24:34;11.00;;;6.63;;
7160;SDS011;3622;53.576;9.978;2023-02-28T04:27:00;11.67;;;5.97;;
7160;SDS011;3622;53.576;9.978;2023-02-28T04:29:27;14.97;;;6.47;;
7160;SDS011;3622;53.576;9.978;2023-02-28T04:31:54;14.73;;;6.30;;
7160;SDS011;3622;53.576;9.978;2023-02-28T04:34:22;7.37;;;5.67;;
7160;SDS011;3622;53.576;9.978;2023-02-28T04:36:48;9.97;;;5.60;;
7160;SDS011;3622;53.576;9.978;2023-02-28T04:39:15;10.67;;;5.33;;
7160;SDS011;3622;53.576;9.978;2023-02-28T04:41:43;12.53;;;6.07;;
7160;SDS011;3622;53.576;9.978;2023-02-28T04:44:09;10.43;;;5.63;;
7160;SDS011;3622;53.576;9.978;2023-02-28T04:46:35;9.03;;;5.40;;
7160;SDS011;3622;53.576;9.978;2023-02-28T04:49:01;13.43;;;5.53;;
7160;SDS011;3622;53.576;9.978;2023-02-28T04:51:27;11.33;;;6.00;;
7160;SDS011;3622;53.576;9.978;2023-02-28T04:53:53;7.67;;;5.07;;
7160;SDS011;3622;53.576;9.978;2023-02-28T04:56:19;10.97;;;5.57;;
7160;SDS011;3622;53.576;9.978;2023-02-28T04:58:46;6.33;;;5.00;;
7160;SDS011;3622;53.576;9.978;2023-02-28T05:01:19;13.23;;;5.30;;
7160;SDS011;3622;53.576;9.978;2023-02-28T05:03:46;8.70;;;5.33;;
7160;SDS011;3622;53.576;9.978;2023-02-28T05:06:12;7.40;;;4.47;;
7160;SDS011;3622;53.576;9.978;2023-02-28T05:08:38;7.20;;;5.27;;
7160;SDS011;3622;53.576;9.978;2023-02-28T05:11:06;8.27;;;5.10;;
7160;SDS011;3622;53.576;9.978;2023-02-28T05:13:33;8.77;;;4.83;;
7160;SDS011;3622;53.576;9.978;2023-02-28T05:16:00;8.50;;;4.90;;
7160;SDS011;3622;53.576;9.978;2023-02-28T05:18:26;10.17;;;4.67;;
7160;SDS011;3622;53.576;9.978;2023-02-28T05:20:52;9.23;;;5.10;;
7160;SDS011;3622;53.576;9.978;2023-02-28T05:23:18;10.07;;;5.10;;
7160;SDS011;3622;53.576;9.978;2023-02-28T05:25:45;7.43;;;5.00;;
7160;SDS011;3622;53.576;9.978;2023-02-28T05:28:11;7.87;;;5.13;;
7160;SDS011;3622;53.576;9.978;2023-02-28T05:30:37;9.23;;;5.67;;
7160;SDS011;3622;53.576;9.978;2023-02-28T05:33:03;7.70;;;5.63;;
7160;SDS011;3622;53.576;9.978;2023-02-28T05:35:29;9.93;;;6.40;;
7160;SDS011;3622;53.576;9.978;2023-02-28T05:37:55;12.50;;;6.20;;
7160;SDS011;3622;53.576;9.978;2023-02-28T05:40:21;11.57;;;5.57;;
7160;SDS011;3622;53.576;9.978;2023-02-28T05:42:47;11.30;;;6.07;;
7160;SDS011;3622;53.576;9.978;2023-02-28T05:45:15;8.07;;;5.23;;
7160;SDS011;3622;53.576;9.978;2023-02-28T05:47:42;10.40;;;6.27;;
7160;SDS011;3622;53.576;9.978;2023-02-28T05:50:08;9.50;;;5.80;;
7160;SDS011;3622;53.576;9.978;2023-02-28T05:52:35;12.97;;;6.17;;
7160;SDS011;3622;53.576;9.978;2023-02-28T05:55:01;10.53;;;5.97;;
7160;SDS011;3622;53.576;9.978;2023-02-28T05:57:27;8.40;;;5.60;;
7160;SDS011;3622;53.576;9.978;2023-02-28T05:59:53;11.13;;;6.03;;
7160;SDS011;3622;53.576;9.978;2023-02-28T06:02:19;16.97;;;6.43;;
7160;SDS011;3622;53.576;9.978;2023-02-28T06:04:45;9.60;;;5.50;;
7160;SDS011;3622;53.576;9.978;2023-02-28T06:07:11;12.77;;;6.90;;
7160;SDS011;3622;53.576;9.978;2023-02-28T06:09:37;13.53;;;6.00;;
7160;SDS011;3622;53.576;9.978;2023-02-28T06:12:04;11.40;;;5.73;;
7160;SDS011;3622;53.576;9.978;2023-02-28T06:14:32;7.33;;;5.93;;
7160;SDS011;3622;53.576;9.978;2023-02-28T06:17:01;12.73;;;5.77;;
7160;SDS011;3622;53.576;9.978;2023-02-28T06:19:27;8.60;;;5.67;;
7160;SDS011;3622;53.576;9.978;2023-02-28T06:21:55;7.90;;;5.60;;
7160;SDS011;3622;53.576;9.978;2023-02-28T06:24:22;10.57;;;5.40;;
7160;SDS011;3622;53.576;9.978;2023-02-28T06:26:48;6.00;;;5.40;;
7160;SDS011;3622;53.576;9.978;2023-02-28T06:29:14;8.80;;;5.80;;
7160;SDS011;3622;53.576;9.978;2023-02-28T06:31:46;12.00;;;5.67;;
7160;SDS011;3622;53.576;9.978;2023-02-28T06:34:12;10.40;;;5.70;;
7160;SDS011;3622;53.576;9.978;2023-02-28T06:36:38;10.07;;;6.63;;
7160;SDS011;3622;53.576;9.978;2023-02-28T06:39:05;7.70;;;6.13;;
7160;SDS011;3622;53.576;9.978;2023-02-28T06:41:32;11.00;;;6.70;;
7160;SDS011;3622;53.576;9.978;2023-02-28T06:44:02;11.33;;;6.40;;
7160;SDS011;3622;53.576;9.978;2023-02-28T06:46:28;9.47;;;6.27;;
7160;SDS011;3622;53.576;9.978;2023-02-28T06:48:54;7.67;;;6.17;;
7160;SDS011;3622;53.576;9.978;2023-02-28T06:51:20;10.40;;;6.80;;
7160;SDS011;3622;53.576;9.978;2023-02-28T06:53:47;18.40;;;7.23;;
7160;SDS011;3622;53.576;9.978;2023-02-28T06:56:14;11.80;;;6.93;;
7160;SDS011;3622;53.576;9.978;2023-02-28T06:58:40;15.27;;;7.23;;
7160;SDS011;3622;53.576;9.978;2023-02-28T07:01:07;17.07;;;7.30;;
7160;SDS011;3622;53.576;9.978;2023-02-28T07:03:34;12.37;;;7.40;;
7160;SDS011;3622;53.576;9.978;2023-02-28T07:06:00;10.43;;;7.53;;
7160;SDS011;3622;53.576;9.978;2023-02-28T07:08:26;13.80;;;6.83;;
7160;SDS011;3622;53.576;9.978;2023-02-28T07:10:53;13.80;;;7.10;;
7160;SDS011;3622;53.576;9.978;2023-02-28T07:13:19;14.33;;;7.60;;
7160;SDS011;3622;53.576;9.978;2023-02-28T07:15:52;15.13;;;7.93;;
7160;SDS011;3622;53.576;9.978;2023-02-28T07:18:18;14.23;;;7.93;;
7160;SDS011;3622;53.576;9.978;2023-02-28T07:20:44;18.20;;;7.83;;
7160;SDS011;3622;53.576;9.978;2023-02-28T07:23:10;11.90;;;7.30;;
7160;SDS011;3622;53.576;9.978;2023-02-28T07:25:36;13.67;;;7.53;;
7160;SDS011;3622;53.576;9.978;2023-02-28T07:28:02;17.10;;;6.80;;
7160;SDS011;3622;53.576;9.978;2023-02-28T07:30:28;14.50;;;7.50;;
7160;SDS011;3622;53.576;9.978;2023-02-28T07:32:54;14.90;;;8.00;;
7160;SDS011;3622;53.576;9.978;2023-02-28T07:35:21;17.53;;;8.73;;
7160;SDS011;3622;53.576;9.978;2023-02-28T07:37:47;17.90;;;9.73;;
7160;SDS011;3622;53.576;9.978;2023-02-28T07:40:13;21.00;;;10.00;;
7160;SDS011;3622;53.576;9.978;2023-02-28T07:42:39;18.47;;;9.73;;
7160;SDS011;3622;53.576;9.978;2023-02-28T07:45:06;23.60;;;12.10;;
7160;SDS011;3622;53.576;9.978;2023-02-28T07:47:32;20.60;;;10.40;;
7160;SDS011;3622;53.576;9.978;2023-02-28T07:49:58;20.43;;;8.27;;
7160;SDS011;3622;53.576;9.978;2023-02-28T07:52:24;16.63;;;9.23;;
7160;SDS011;3622;53.576;9.978;2023-02-28T07:54:50;15.23;;;8.33;;
7160;SDS011;3622;53.576;9.978;2023-02-28T07:57:16;13.03;;;8.27;;
7160;SDS011;3622;53.576;9.978;2023-02-28T07:59:42;14.20;;;8.77;;
7160;SDS011;3622;53.576;9.978;2023-02-28T08:02:15;18.00;;;9.40;;
7160;SDS011;3622;53.576;9.978;2023-02-28T08:04:41;15.50;;;9.00;;
7160;SDS011;3622;53.576;9.978;2023-02-28T08:07:07;17.03;;;9.10;;
7160;SDS011;3622;53.576;9.978;2023-02-28T08:09:36;14.43;;;8.70;;
7160;SDS011;3622;53.576;9.978;2023-02-28T08:12:02;16.73;;;7.93;;
7160;SDS011;3622;53.576;9.978;2023-02-28T08:14:28;10.87;;;7.90;;
7160;SDS011;3622;53.576;9.978;2023-02-28T08:16:54;15.00;;;8.40;;
7160;SDS011;3622;53.576;9.978;2023-02-28T08:19:20;10.43;;;6.80;;
7160;SDS011;3622;53.576;9.978;2023-02-28T08:21:46;13.27;;;7.23;;
7160;SDS011;3622;53.576;9.978;2023-02-28T08:24:12;11.27;;;7.80;;
7160;SDS011;3622;53.576;9.978;2023-02-28T08:26:38;9.70;;;6.60;;
7160;SDS011;3622;53.576;9.978;2023-02-28T08:29:04;11.83;;;5.50;;
7160;SDS011;3622;53.576;9.978;2023-02-28T08:31:30;11.77;;;5.10;;
7160;SDS011;3622;53.576;9.978;2023-02-28T08:33:56;8.70;;;4.60;;
7160;SDS011;3622;53.576;9.978;2023-02-28T08:36:23;8.23;;;4.17;;
7160;SDS011;3622;53.576;9.978;2023-02-28T08:38:49;13.60;;;4.30;;
7160;SDS011;3622;53.576;9.978;2023-02-28T08:41:15;6.13;;;3.57;;
7160;SDS011;3622;53.576;9.978;2023-02-28T08:43:41;7.10;;;4.50;;
7160;SDS011;3622;53.576;9.978;2023-02-28T08:46:08;5.20;;;2.43;;
7160;SDS011;3622;53.576;9.978;2023-02-28T08:48:36;4.60;;;3.00;;
7160;SDS011;3622;53.576;9.978;2023-02-28T08:51:04;2.03;;;1.77;;
7160;SDS011;3622;53.576;9.978;2023-02-28T08:53:30;2.10;;;1.73;;
7160;SDS011;3622;53.576;9.978;2023-02-28T08:56:00;2.10;;;2.00;;
7160;SDS011;3622;53.576;9.978;2023-02-28T08:58:27;2.00;;;1.90;;
7160;SDS011;3622;53.576;9.978;2023-02-28T09:00:53;4.10;;;2.00;;
7160;SDS011;3622;53.576;9.978;2023-02-28T09:03:19;4.50;;;2.07;;
7160;SDS011;3622;53.576;9.978;2023-02-28T09:06:19;3.50;;;2.23;;
7160;SDS011;3622;53.576;9.978;2023-02-28T09:08:38;2.80;;;1.90;;
7160;SDS011;3622;53.576;9.978;2023-02-28T09:11:04;2.47;;;2.27;;
7160;SDS011;3622;53.576;9.978;2023-02-28T09:13:31;1.73;;;1.57;;
7160;SDS011;3622;53.576;9.978;2023-02-28T09:16:00;2.33;;;2.00;;
7160;SDS011;3622;53.576;9.978;2023-02-28T09:18:27;6.30;;;2.53;;
7160;SDS011;3622;53.576;9.978;2023-02-28T09:20:53;3.67;;;2.30;;
7160;SDS011;3622;53.576;9.978;2023-02-28T09:23:19;1.90;;;1.70;;
7160;SDS011;3622;53.576;9.978;2023-02-28T09:25:49;6.73;;;2.00;;
7160;SDS011;3622;53.576;9.978;2023-02-28T09:28:16;5.93;;;1.73;;
7160;SDS011;3622;53.576;9.978;2023-02-28T09:30:44;9.73;;;2.90;;
7160;SDS011;3622;53.576;9.978;2023-02-28T09:33:10;3.70;;;2.10;;
7160;SDS011;3622;53.576;9.978;2023-02-28T09:35:36;5.07;;;2.00;;
7160;SDS011;3622;53.576;9.978;2023-02-28T09:38:02;2.50;;;1.87;;
7160;SDS011;3622;53.576;9.978;2023-02-28T09:40:29;2.33;;;2.00;;
7160;SDS011;3622;53.576;9.978;2023-02-28T09:42:55;2.60;;;1.60;;
7160;SDS011;3622;53.576;9.978;2023-02-28T09:45:27;3.30;;;2.50;;
7160;SDS011;3622;53.576;9.978;2023-02-28T09:47:56;2.77;;;1.60;;
7160;SDS011;3622;53.576;9.978;2023-02-28T09:50:35;34.10;;;21.07;;
7160;SDS011;3622;53.576;9.978;2023-02-28T09:53:03;26.57;;;15.97;;
7160;SDS011;3622;53.576;9.978;2023-02-28T09:55:39;11.13;;;8.70;;
7160;SDS011;3622;53.576;9.978;2023-02-28T09:58:08;19.87;;;13.47;;
7160;SDS011;3622;53.576;9.978;2023-02-28T10:00:40;59.23;;;36.93;;
7160;SDS011;3622;53.576;9.978;2023-02-28T10:03:22;3.17;;;2.57;;
7160;SDS011;3622;53.576;9.978;2023-02-28T10:05:51;7.10;;;5.30;;
7160;SDS011;3622;53.576;9.978;2023-02-28T10:08:24;3.90;;;3.47;;
7160;SDS011;3622;53.576;9.978;2023-02-28T10:10:51;5.13;;;4.27;;
7160;SDS011;3622;53.576;9.978;2023-02-28T10:13:27;7.17;;;6.47;;
7160;SDS011;3622;53.576;9.978;2023-02-28T10:16:01;14.67;;;11.40;;
7160;SDS011;3622;53.576;9.978;2023-02-28T10:18:31;4.80;;;4.43;;
7160;SDS011;3622;53.576;9.978;2023-02-28T10:21:00;4.60;;;4.23;;
7160;SDS011;3622;53.576;9.978;2023-02-28T10:23:28;1.80;;;1.70;;
7160;SDS011;3622;53.576;9.978;2023-02-28T10:26:03;3.37;;;3.07;;
7160;SDS011;3622;53.576;9.978;2023-02-28T10:28:31;2.20;;;1.87;;
7160;SDS011;3622;53.576;9.978;2023-02-28T10:30:57;3.20;;;3.00;;
7160;SDS011;3622;53.576;9.978;2023-02-28T10:35:50;2.43;;;2.23;;
7160;SDS011;3622;53.576;9.978;2023-02-28T10:38:19;4.67;;;4.23;;
7160;SDS011;3622;53.576;9.978;2023-02-28T10:40:45;1.97;;;1.77;;
7160;SDS011;3622;53.576;9.978;2023-02-28T10:45:52;2.80;;;2.40;;
7160;SDS011;3622;53.576;9.978;2023-02-28T10:55:40;1.80;;;1.70;;
7160;SDS011;3622;53.576;9.978;2023-02-28T10:58:22;3.30;;;2.00;;
7160;SDS011;3622;53.576;9.978;2023-02-28T11:00:48;1.50;;;1.40;;
7160;SDS011;3622;53.576;9.978;2023-02-28T11:05:49;2.80;;;2.40;;
7160;SDS011;3622;53.576;9.978;2023-02-28T11:08:16;5.47;;;1.70;;
7160;SDS011;3622;53.576;9.978;2023-02-28T11:10:46;4.40;;;1.77;;
7160;SDS011;3622;53.576;9.978;2023-02-28T11:13:19;1.73;;;1.63;;
7160;SDS011;3622;53.576;9.978;2023-02-28T11:15:55;1.37;;;1.27;;
7160;SDS011;3622;53.576;9.978;2023-02-28T11:19:04;1.93;;;1.83;;
7160;SDS011;3622;53.576;9.978;2023-02-28T11:21:15;3.07;;;2.70;;
7160;SDS011;3622;53.576;9.978;2023-02-28T11:23:42;3.57;;;1.90;;
7160;SDS011;3622;53.576;9.978;2023-02-28T11:26:08;2.53;;;1.80;;
7160;SDS011;3622;53.576;9.978;2023-02-28T11:28:38;2.00;;;1.90;;
7160;SDS011;3622;53.576;9.978;2023-02-28T11:33:44;5.97;;;3.83;;
7160;SDS011;3622;53.576;9.978;2023-02-28T11:36:11;2.60;;;2.40;;
7160;SDS011;3622;53.576;9.978;2023-02-28T11:38:38;2.53;;;2.40;;
7160;SDS011;3622;53.576;9.978;2023-02-28T11:43:44;4.90;;;3.83;;
7160;SDS011;3622;53.576;9.978;2023-02-28T11:51:27;2.30;;;1.80;;
7160;SDS011;3622;53.576;9.978;2023-02-28T12:01:58;6.17;;;4.37;;
7160;SDS011;3622;53.576;9.978;2023-02-28T12:04:44;3.37;;;2.10;;
7160;SDS011;3622;53.576;9.978;2023-02-28T12:09:42;2.33;;;2.13;;
7160;SDS011;3622;53.576;9.978;2023-02-28T12:27:50;3.13;;;2.27;;
7160;SDS011;3622;53.576;9.978;2023-02-28T12:32:52;3.10;;;2.53;;
7160;SDS011;3622;53.576;9.978;2023-02-28T12:35:25;2.73;;;2.53;;
7160;SDS011;3622;53.576;9.978;2023-02-28T12:40:19;3.33;;;3.03;;
7160;SDS011;3622;53.576;9.978;2023-02-28T12:42:47;3.77;;;3.20;;
7160;SDS011;3622;53.576;9.978;2023-02-28T12:45:17;4.60;;;2.73;;
7160;SDS011;3622;53.576;9.978;2023-02-28T12:47:44;2.60;;;2.30;;
7160;SDS011;3622;53.576;9.978;2023-02-28T12:50:11;3.93;;;2.90;;
7160;SDS011;3622;53.576;9.978;2023-02-28T12:55:04;17.87;;;3.07;;
7160;SDS011;3622;53.576;9.978;2023-02-28T12:57:57;39.73;;;18.90;;
7160;SDS011;3622;53.576;9.978;2023-02-28T13:00:25;3.87;;;3.10;;
7160;SDS011;3622;53.576;9.978;2023-02-28T13:05:41;11.67;;;3.40;;
7160;SDS011;3622;53.576;9.978;2023-02-28T13:08:23;2.63;;;2.43;;
7160;SDS011;3622;53.576;9.978;2023-02-28T13:10:53;5.40;;;3.67;;
7160;SDS011;3622;53.576;9.978;2023-02-28T13:13:24;7.07;;;4.40;;
7160;SDS011;3622;53.576;9.978;2023-02-28T13:15:58;8.23;;;2.60;;
7160;SDS011;3622;53.576;9.978;2023-02-28T13:18:32;2.83;;;2.40;;
7160;SDS011;3622;53.576;9.978;2023-02-28T13:21:01;5.57;;;2.70;;
7160;SDS011;3622;53.576;9.978;2023-02-28T13:24:02;9.50;;;2.70;;
7160;SDS011;3622;53.576;9.978;2023-02-28T13:29:27;6.47;;;2.60;;
7160;SDS011;3622;53.576;9.978;2023-02-28T13:32:18;6.33;;;2.97;;
7160;SDS011;3622;53.576;9.978;2023-02-28T13:34:37;5.20;;;3.30;;
7160;SDS011;3622;53.576;9.978;2023-02-28T13:42:24;2.93;;;2.60;;
7160;SDS011;3622;53.576;9.978;2023-02-28T13:50:40;2.50;;;2.30;;
7160;SDS011;3622;53.576;9.978;2023-02-28T13:53:28;2.53;;;2.33;;
7160;SDS011;3622;53.576;9.978;2023-02-28T13:55:32;2.40;;;2.17;;
7160;SDS011;3622;53.576;9.978;2023-02-28T14:03:14;5.80;;;2.90;;
7160;SDS011;3622;53.576;9.978;2023-02-28T14:05:43;5.03;;;2.50;;
7160;SDS011;3622;53.576;9.978;2023-02-28T14:08:14;5.37;;;2.50;;
7160;SDS011;3622;53.576;9.978;2023-02-28T14:13:36;7.70;;;2.83;;
7160;SDS011;3622;53.576;9.978;2023-02-28T14:16:09;2.53;;;2.43;;
7160;SDS011;3622;53.576;9.978;2023-02-28T14:18:35;4.90;;;2.90;;
7160;SDS011;3622;53.576;9.978;2023-02-28T14:23:46;7.93;;;2.63;;
7160;SDS011;3622;53.576;9.978;2023-02-28T14:31:13;4.40;;;4.00;;
7160;SDS011;3622;53.576;9.978;2023-02-28T14:34:02;5.53;;;2.83;;
7160;SDS011;3622;53.576;9.978;2023-02-28T14:36:34;7.43;;;4.53;;
7160;SDS011;3622;53.576;9.978;2023-02-28T14:39:05;5.90;;;2.67;;
7160;SDS011;3622;53.576;9.978;2023-02-28T14:44:00;4.23;;;3.10;;
7160;SDS011;3622;53.576;9.978;2023-02-28T14:46:35;6.83;;;2.83;;
7160;SDS011;3622;53.576;9.978;2023-02-28T14:49:03;3.13;;;2.83;;
7160;SDS011;3622;53.576;9.978;2023-02-28T14:51:29;3.00;;;2.67;;
7160;SDS011;3622;53.576;9.978;2023-02-28T14:53:57;4.10;;;2.80;;
7160;SDS011;3622;53.576;9.978;2023-02-28T14:56:24;3.87;;;2.47;;
7160;SDS011;3622;53.576;9.978;2023-02-28T14:58:52;2.60;;;2.50;;
7160;SDS011;3622;53.576;9.978;2023-02-28T15:01:19;7.20;;;3.30;;
7160;SDS011;3622;53.576;9.978;2023-02-28T15:03:46;4.43;;;2.87;;
7160;SDS011;3622;53.576;9.978;2023-02-28T15:06:14;2.93;;;2.73;;
7160;SDS011;3622;53.576;9.978;2023-02-28T15:08:41;11.83;;;4.77;;
7160;SDS011;3622;53.576;9.978;2023-02-28T15:11:08;7.93;;;3.50;;
7160;SDS011;3622;53.576;9.978;2023-02-28T15:13:45;3.70;;;3.10;;
7160;SDS011;3622;53.576;9.978;2023-02-28T15:16:12;5.97;;;4.00;;
7160;SDS011;3622;53.576;9.978;2023-02-28T15:18:57;26.47;;;12.73;;
7160;SDS011;3622;53.576;9.978;2023-02-28T15:21:29;8.57;;;3.03;;
7160;SDS011;3622;53.576;9.978;2023-02-28T15:26:42;2.70;;;2.50;;
7160;SDS011;3622;53.576;9.978;2023-02-28T15:29:12;3.57;;;2.57;;
7160;SDS011;3622;53.576;9.978;2023-02-28T15:31:40;2.60;;;2.10;;
7160;SDS011;3622;53.576;9.978;2023-02-28T15:34:18;3.77;;;2.50;;
7160;SDS011;3622;53.576;9.978;2023-02-28T15:36:45;4.70;;;2.17;;
7160;SDS011;3622;53.576;9.978;2023-02-28T15:39:21;3.13;;;2.43;;
7160;SDS011;3622;53.576;9.978;2023-02-28T15:41:47;2.60;;;2.40;;
7160;SDS011;3622;53.576;9.978;2023-02-28T15:44:14;2.40;;;2.20;;
7160;SDS011;3622;53.576;9.978;2023-02-28T15:46:52;4.73;;;3.17;;
7160;SDS011;3622;53.576;9.978;2023-02-28T15:49:19;31.27;;;12.37;;
7160;SDS011;3622;53.576;9.978;2023-02-28T15:51:46;4.60;;;3.37;;
7160;SDS011;3622;53.576;9.978;2023-02-28T15:54:15;2.47;;;2.27;;
7160;SDS011;3622;53.576;9.978;2023-02-28T15:56:46;3.93;;;2.43;;
7160;SDS011;3622;53.576;9.978;2023-02-28T15:59:15;3.43;;;3.13;;
7160;SDS011;3622;53.576;9.978;2023-02-28T16:01:42;2.63;;;2.43;;
7160;SDS011;3622;53.576;9.978;2023-02-28T16:04:18;2.93;;;2.73;;
7160;SDS011;3622;53.576;9.978;2023-02-28T16:06:45;4.77;;;2.93;;
7160;SDS011;3622;53.576;9.978;2023-02-28T16:09:14;8.10;;;5.97;;
7160;SDS011;3622;53.576;9.978;2023-02-28T16:11:41;3.50;;;2.57;;
7160;SDS011;3622;53.576;9.978;2023-02-28T16:14:11;4.57;;;2.90;;
7160;SDS011;3622;53.576;9.978;2023-02-28T16:16:41;8.07;;;2.70;;
7160;SDS011;3622;53.576;9.978;2023-02-28T16:19:07;2.50;;;2.30;;
7160;SDS011;3622;53.576;9.978;2023-02-28T16:21:33;6.10;;;4.57;;
7160;SDS011;3622;53.576;9.978;2023-02-28T16:23:59;3.80;;;2.77;;
7160;SDS011;3622;53.576;9.978;2023-02-28T16:26:25;5.60;;;3.90;;
7160;SDS011;3622;53.576;9.978;2023-02-28T16:28:53;2.70;;;2.50;;
7160;SDS011;3622;53.576;9.978;2023-02-28T16:31:19;6.43;;;5.00;;
7160;SDS011;3622;53.576;9.978;2023-02-28T16:33:45;3.53;;;3.20;;
7160;SDS011;3622;53.576;9.978;2023-02-28T16:36:15;4.27;;;3.93;;
7160;SDS011;3622;53.576;9.978;2023-02-28T16:38:41;6.90;;;3.10;;
7160;SDS011;3622;53.576;9.978;2023-02-28T16:41:07;5.63;;;3.73;;
7160;SDS011;3622;53.576;9.978;2023-02-28T16:43:36;13.53;;;7.60;;
7160;SDS011;3622;53.576;9.978;2023-02-28T16:46:03;8.00;;;3.23;;
7160;SDS011;3622;53.576;9.978;2023-02-28T16:48:30;10.73;;;6.20;;
7160;SDS011;3622;53.576;9.978;2023-02-28T16:50:56;3.37;;;2.90;;
7160;SDS011;3622;53.576;9.978;2023-02-28T16:53:22;3.57;;;3.10;;
7160;SDS011;3622;53.576;9.978;2023-02-28T16:55:48;4.50;;;2.43;;
7160;SDS011;3622;53.576;9.978;2023-02-28T16:58:15;5.80;;;2.67;;
7160;SDS011;3622;53.576;9.978;2023-02-28T17:00:42;5.63;;;4.03;;
7160;SDS011;3622;53.576;9.978;2023-02-28T17:03:20;6.20;;;4.13;;
7160;SDS011;3622;53.576;9.978;2023-02-28T17:05:47;4.67;;;3.60;;
7160;SDS011;3622;53.576;9.978;2023-02-28T17:08:13;11.73;;;5.30;;
7160;SDS011;3622;53.576;9.978;2023-02-28T17:10:39;8.37;;;4.10;;
7160;SDS011;3622;53.576;9.978;2023-02-28T17:13:05;6.43;;;4.60;;
7160;SDS011;3622;53.576;9.978;2023-02-28T17:15:32;7.83;;;6.10;;
7160;SDS011;3622;53.576;9.978;2023-02-28T17:17:59;4.93;;;3.07;;
7160;SDS011;3622;53.576;9.978;2023-02-28T17:20:24;8.20;;;5.93;;